createdAt,value
2023-04-03T00:00:10.038Z,3.17
2023-04-03T00:00:42.521Z,3.60
2023-04-03T00:01:15.078Z,3.55
2023-04-03T00:01:47.521Z,3.77
2023-04-03T00:02:19.991Z,3.10
2023-04-03T00:02:52.538Z,3.60
2023-04-03T00:03:24.890Z,3.00
2023-04-03T00:03:57.207Z,3.22
2023-04-03T00:04:29.737Z,3.35
2023-04-03T00:05:02.016Z,3.17
2023-04-03T00:05:34.805Z,3.28
2023-04-03T00:06:08.258Z,3.60
2023-04-03T00:06:40.735Z,3.47
2023-04-03T00:07:13.786Z,3.57
2023-04-03T00:07:46.068Z,3.70
2023-04-03T00:08:18.599Z,3.60
2023-04-03T00:08:51.878Z,3.78
2023-04-03T00:09:24.135Z,3.03
2023-04-03T00:09:56.714Z,3.47
2023-04-03T00:10:30.014Z,3.72
2023-04-03T00:11:02.661Z,3.63
2023-04-03T00:11:35.073Z,2.88
2023-04-03T00:12:07.522Z,3.38
2023-04-03T00:12:39.906Z,3.60
2023-04-03T00:13:12.250Z,3.85
2023-04-03T00:13:44.812Z,3.70
2023-04-03T00:14:17.277Z,3.50
2023-04-03T00:14:49.835Z,3.55
2023-04-03T00:15:22.137Z,3.30
2023-04-03T00:15:54.516Z,3.42
2023-04-03T00:16:26.838Z,3.53
2023-04-03T00:16:59.252Z,3.28
2023-04-03T00:17:31.656Z,3.28
2023-04-03T00:18:05.029Z,3.47
2023-04-03T00:18:37.908Z,3.10
2023-04-03T00:19:12.860Z,4.03
2023-04-03T00:19:45.262Z,3.72
2023-04-03T00:20:17.716Z,3.05
2023-04-03T00:20:50.839Z,3.17
2023-04-03T00:21:23.311Z,3.80
2023-04-03T00:21:55.992Z,4.03
2023-04-03T00:22:29.802Z,3.55
2023-04-03T00:23:02.341Z,3.47
2023-04-03T00:23:35.087Z,3.17
2023-04-03T00:24:07.674Z,3.17
2023-04-03T00:24:39.984Z,3.47
2023-04-03T00:25:12.464Z,3.97
2023-04-03T00:25:44.991Z,3.80
2023-04-03T00:26:17.330Z,3.42
2023-04-03T00:26:50.057Z,3.65
2023-04-03T00:27:22.356Z,3.63
2023-04-03T00:27:55.318Z,4.13
2023-04-03T00:28:28.289Z,3.70
2023-04-03T00:29:00.872Z,4.27
2023-04-03T00:29:33.626Z,4.20
2023-04-03T00:30:06.664Z,3.33
2023-04-03T00:30:39.281Z,3.83
2023-04-03T00:31:12.330Z,3.60
2023-04-03T00:31:44.650Z,3.58
2023-04-03T00:32:17.123Z,3.50
2023-04-03T00:32:50.084Z,3.50
2023-04-03T00:33:25.762Z,3.80
2023-04-03T00:33:58.021Z,3.35
2023-04-03T00:34:30.349Z,3.33
2023-04-03T00:35:02.979Z,3.70
2023-04-03T00:35:36.253Z,3.53
2023-04-03T00:36:10.517Z,3.67
2023-04-03T00:36:42.953Z,3.45
2023-04-03T00:37:15.622Z,3.80
2023-04-03T00:37:48.550Z,4.03
2023-04-03T00:38:20.864Z,3.47
2023-04-03T00:38:53.476Z,3.83
2023-04-03T00:39:26.048Z,3.55
2023-04-03T00:39:58.332Z,3.90
2023-04-03T00:40:34.943Z,3.70
2023-04-03T00:41:07.779Z,3.80
2023-04-03T00:41:40.077Z,3.72
2023-04-03T00:42:12.585Z,4.22
2023-04-03T00:42:47.057Z,3.88
2023-04-03T00:43:24.084Z,3.60
2023-04-03T00:43:56.812Z,3.65
2023-04-03T00:44:29.325Z,4.47
2023-04-03T00:45:02.136Z,3.80
2023-04-03T00:45:36.241Z,3.40
2023-04-03T00:46:08.662Z,3.45
2023-04-03T00:46:41.479Z,3.92
2023-04-03T00:47:15.168Z,4.20
2023-04-03T00:47:47.525Z,4.10
2023-04-03T00:48:21.818Z,3.70
2023-04-03T00:48:54.152Z,4.18
2023-04-03T00:49:27.168Z,3.65
2023-04-03T00:49:59.834Z,3.40
2023-04-03T00:50:34.077Z,3.80
2023-04-03T00:51:08.037Z,4.40
2023-04-03T00:51:40.725Z,4.13
2023-04-03T00:52:16.517Z,4.00
2023-04-03T00:52:50.290Z,4.18
2023-04-03T00:53:43.194Z,4.03
2023-04-03T00:54:15.636Z,3.58
2023-04-03T00:54:49.718Z,4.15
2023-04-03T00:55:22.237Z,3.58
2023-04-03T00:55:55.736Z,3.28
2023-04-03T00:56:29.387Z,3.50
2023-04-03T00:57:02.159Z,4.00
2023-04-03T00:57:34.720Z,4.50
2023-04-03T00:58:08.422Z,3.90
2023-04-03T00:58:43.439Z,4.15
2023-04-03T00:59:17.902Z,4.10
2023-04-03T00:59:53.234Z,4.10
2023-04-03T01:00:25.791Z,3.95
2023-04-03T01:00:59.223Z,4.00
2023-04-03T01:01:31.964Z,4.50
2023-04-03T01:02:05.481Z,4.50
2023-04-03T01:02:38.283Z,4.00
2023-04-03T01:03:10.928Z,4.20
2023-04-03T01:03:45.140Z,3.70
2023-04-03T01:04:48.712Z,4.50
2023-04-03T01:05:21.959Z,4.07
2023-04-03T01:05:54.479Z,3.50
2023-04-03T01:06:29.631Z,4.65
2023-04-03T01:07:11.596Z,3.90
2023-04-03T01:07:44.768Z,3.80
2023-04-03T01:08:17.112Z,3.33
2023-04-03T01:08:50.528Z,4.33
2023-04-03T01:09:23.542Z,4.18
2023-04-03T01:09:59.928Z,3.80
2023-04-03T01:10:32.301Z,3.22
2023-04-03T01:11:04.792Z,4.20
2023-04-03T01:11:37.126Z,3.42
2023-04-03T01:12:17.549Z,3.60
2023-04-03T01:12:51.697Z,3.83
2023-04-03T01:13:28.658Z,4.05
2023-04-03T01:14:02.869Z,3.72
2023-04-03T01:14:35.761Z,3.33
2023-04-03T01:15:10.518Z,3.58
2023-04-03T01:15:42.847Z,3.85
2023-04-03T01:16:15.534Z,3.90
2023-04-03T01:16:54.441Z,4.07
2023-04-03T01:17:35.060Z,2.92
2023-04-03T01:18:11.270Z,3.63
2023-04-03T01:18:44.336Z,3.88
2023-04-03T01:19:18.068Z,3.72
2023-04-03T01:19:57.869Z,3.42
2023-04-03T01:20:32.896Z,3.50
2023-04-03T01:21:19.568Z,3.28
2023-04-03T01:21:54.684Z,3.33
2023-04-03T01:22:32.324Z,3.90
2023-04-03T01:23:14.207Z,4.07
2023-04-03T01:23:52.992Z,3.80
2023-04-03T01:24:36.430Z,3.38
2023-04-03T01:25:11.246Z,3.17
2023-04-03T01:25:54.495Z,3.47
2023-04-03T01:26:27.283Z,3.33
2023-04-03T01:27:00.351Z,4.40
2023-04-03T01:27:32.598Z,3.83
2023-04-03T01:28:05.984Z,4.13
2023-04-03T01:28:38.509Z,3.88
2023-04-03T01:29:11.035Z,4.22
2023-04-03T01:29:44.685Z,3.80
2023-04-03T01:30:18.546Z,4.00
2023-04-03T01:31:03.288Z,3.75
2023-04-03T01:31:47.196Z,4.35
2023-04-03T01:32:19.554Z,3.63
2023-04-03T01:32:51.842Z,4.33
2023-04-03T01:33:24.131Z,3.90
2023-04-03T01:33:57.328Z,4.35
2023-04-03T01:34:30.858Z,3.60
2023-04-03T01:35:03.479Z,4.18
2023-04-03T01:35:35.822Z,3.50
2023-04-03T01:36:08.184Z,3.35
2023-04-03T01:36:41.294Z,3.28
2023-04-03T01:37:13.726Z,3.53
2023-04-03T01:37:46.008Z,4.63
2023-04-03T01:38:18.287Z,4.23
2023-04-03T01:38:51.171Z,3.75
2023-04-03T01:39:23.439Z,3.97
2023-04-03T01:39:56.378Z,3.40
2023-04-03T01:40:28.654Z,4.10
2023-04-03T01:41:01.422Z,4.30
2023-04-03T01:41:34.640Z,4.30
2023-04-03T01:42:15.590Z,3.78
2023-04-03T01:42:49.867Z,4.15
2023-04-03T01:43:22.156Z,4.03
2023-04-03T01:43:54.628Z,4.60
2023-04-03T01:44:26.967Z,4.20
2023-04-03T01:44:59.362Z,4.00
2023-04-03T01:45:32.334Z,4.40
2023-04-03T01:46:05.017Z,4.45
2023-04-03T01:46:38.726Z,4.40
2023-04-03T01:47:11.134Z,3.65
2023-04-03T01:47:45.216Z,3.53
2023-04-03T01:48:18.171Z,3.97
2023-04-03T01:48:51.467Z,3.65
2023-04-03T01:49:23.828Z,5.20
2023-04-03T01:49:56.683Z,3.67
2023-04-03T01:50:29.296Z,4.35
2023-04-03T01:51:01.772Z,3.88
2023-04-03T01:51:34.721Z,3.90
2023-04-03T01:52:07.198Z,3.90
2023-04-03T01:52:39.553Z,4.70
2023-04-03T01:53:11.858Z,4.10
2023-04-03T01:53:44.197Z,4.32
2023-04-03T01:54:16.571Z,4.05
2023-04-03T01:54:48.843Z,3.70
2023-04-03T01:55:21.173Z,4.40
2023-04-03T01:55:54.007Z,4.05
2023-04-03T01:56:26.720Z,4.00
2023-04-03T01:56:59.531Z,4.03
2023-04-03T01:57:32.379Z,4.15
2023-04-03T01:58:04.769Z,4.35
2023-04-03T01:58:37.266Z,4.53
2023-04-03T01:59:09.643Z,4.30
2023-04-03T01:59:42.345Z,4.60
2023-04-03T02:00:14.947Z,4.87
2023-04-03T02:00:47.845Z,4.07
2023-04-03T02:01:20.237Z,4.13
2023-04-03T02:01:52.624Z,3.97
2023-04-03T02:02:24.942Z,4.43
2023-04-03T02:02:58.217Z,4.28
2023-04-03T02:03:32.148Z,3.90
2023-04-03T02:04:04.738Z,4.00
2023-04-03T02:04:37.092Z,3.95
2023-04-03T02:05:09.725Z,4.32
2023-04-03T02:05:42.254Z,4.33
2023-04-03T02:06:14.551Z,4.18
2023-04-03T02:06:47.715Z,4.25
2023-04-03T02:07:20.239Z,4.45
2023-04-03T02:07:52.620Z,3.95
2023-04-03T02:08:25.141Z,4.20
2023-04-03T02:08:57.496Z,4.88
2023-04-03T02:09:29.995Z,4.18
2023-04-03T02:10:02.541Z,4.40
2023-04-03T02:10:35.105Z,3.92
2023-04-03T02:11:07.996Z,4.40
2023-04-03T02:11:40.450Z,3.88
2023-04-03T02:12:12.977Z,4.10
2023-04-03T02:12:45.872Z,5.07
2023-04-03T02:13:18.669Z,4.57
2023-04-03T02:13:51.738Z,3.97
2023-04-03T02:14:24.827Z,4.60
2023-04-03T02:14:57.350Z,3.88
2023-04-03T02:15:29.661Z,4.68
2023-04-03T02:16:07.508Z,4.32
2023-04-03T02:16:39.984Z,3.90
2023-04-03T02:17:12.527Z,4.35
2023-04-03T02:17:44.884Z,4.95
2023-04-03T02:18:17.652Z,4.30
2023-04-03T02:18:49.977Z,4.85
2023-04-03T02:19:22.583Z,4.90
2023-04-03T02:19:54.901Z,4.10
2023-04-03T02:20:27.456Z,5.03
2023-04-03T02:20:59.701Z,4.38
2023-04-03T02:21:32.718Z,4.32
2023-04-03T02:22:05.948Z,4.30
2023-04-03T02:22:38.196Z,4.40
2023-04-03T02:23:11.202Z,4.75
2023-04-03T02:23:43.617Z,5.05
2023-04-03T02:24:15.925Z,4.72
2023-04-03T02:24:48.347Z,4.20
2023-04-03T02:25:21.521Z,4.22
2023-04-03T02:25:53.866Z,4.28
2023-04-03T02:26:28.438Z,5.20
2023-04-03T02:27:00.870Z,4.50
2023-04-03T02:27:33.498Z,4.80
2023-04-03T02:28:06.097Z,4.20
2023-04-03T02:28:38.868Z,4.60
2023-04-03T02:29:11.208Z,5.55
2023-04-03T02:29:43.471Z,3.90
2023-04-03T02:30:15.958Z,4.00
2023-04-03T02:30:48.292Z,4.03
2023-04-03T02:31:22.139Z,4.45
2023-04-03T02:31:54.745Z,4.28
2023-04-03T02:32:28.448Z,4.15
2023-04-03T02:33:01.357Z,3.93
2023-04-03T02:33:34.251Z,4.18
2023-04-03T02:34:06.983Z,4.55
2023-04-03T02:34:41.189Z,4.57
2023-04-03T02:35:14.750Z,4.20
2023-04-03T02:35:54.259Z,4.15
2023-04-03T02:36:27.890Z,4.43
2023-04-03T02:37:03.857Z,4.05
2023-04-03T02:37:36.202Z,3.75
2023-04-03T02:38:08.951Z,4.18
2023-04-03T02:38:41.600Z,4.43
2023-04-03T02:39:15.995Z,4.18
2023-04-03T02:39:48.471Z,4.07
2023-04-03T02:40:21.052Z,4.28
2023-04-03T02:40:53.351Z,4.10
2023-04-03T02:41:29.010Z,4.50
2023-04-03T02:42:02.306Z,4.25
2023-04-03T02:42:34.765Z,4.05
2023-04-03T02:43:09.019Z,4.22
2023-04-03T02:43:43.559Z,3.97
2023-04-03T02:44:16.055Z,4.87
2023-04-03T02:44:48.327Z,4.40
2023-04-03T02:45:20.599Z,4.88
2023-04-03T02:45:53.327Z,4.63
2023-04-03T02:46:25.804Z,3.63
2023-04-03T02:46:58.648Z,4.07
2023-04-03T02:47:31.068Z,3.72
2023-04-03T02:48:03.493Z,4.13
2023-04-03T02:48:36.543Z,4.10
2023-04-03T02:49:09.032Z,3.90
2023-04-03T02:49:41.378Z,4.70
2023-04-03T02:50:13.731Z,4.30
2023-04-03T02:50:46.239Z,4.45
2023-04-03T02:51:18.928Z,3.78
2023-04-03T02:51:52.401Z,4.10
2023-04-03T02:52:25.000Z,3.90
2023-04-03T02:52:59.654Z,4.03
2023-04-03T02:53:32.024Z,4.22
2023-04-03T02:54:08.023Z,4.15
2023-04-03T02:54:43.243Z,3.60
2023-04-03T02:55:17.195Z,3.93
2023-04-03T02:55:51.325Z,3.38
2023-04-03T02:56:23.685Z,4.15
2023-04-03T02:56:56.091Z,4.25
2023-04-03T02:57:28.462Z,3.58
2023-04-03T02:58:01.118Z,3.58
2023-04-03T02:58:33.567Z,3.13
2023-04-03T02:59:06.478Z,3.47
2023-04-03T02:59:42.389Z,4.05
2023-04-03T03:00:16.699Z,3.85
2023-04-03T03:00:49.300Z,4.70
2023-04-03T03:01:22.136Z,4.15
2023-04-03T03:01:54.897Z,4.10
2023-04-03T03:02:27.291Z,4.68
2023-04-03T03:02:59.749Z,4.25
2023-04-03T03:03:32.190Z,4.70
2023-04-03T03:04:04.594Z,4.65
2023-04-03T03:04:36.947Z,4.40
2023-04-03T03:05:09.463Z,4.47
2023-04-03T03:05:41.773Z,3.63
2023-04-03T03:06:16.526Z,3.20
2023-04-03T03:06:49.255Z,3.70
2023-04-03T03:07:21.545Z,4.10
2023-04-03T03:07:53.859Z,3.63
2023-04-03T03:08:26.695Z,4.10
2023-04-03T03:08:59.057Z,4.05
2023-04-03T03:09:31.559Z,3.80
2023-04-03T03:10:04.719Z,3.97
2023-04-03T03:10:37.200Z,4.47
2023-04-03T03:11:10.650Z,4.50
2023-04-03T03:11:43.279Z,4.20
2023-04-03T03:12:15.938Z,4.50
2023-04-03T03:12:48.233Z,4.53
2023-04-03T03:13:20.545Z,3.78
2023-04-03T03:13:53.541Z,5.18
2023-04-03T03:14:25.793Z,3.65
2023-04-03T03:14:58.136Z,4.40
2023-04-03T03:15:30.615Z,4.10
2023-04-03T03:16:03.115Z,3.53
2023-04-03T03:16:35.702Z,4.03
2023-04-03T03:17:07.973Z,4.00
2023-04-03T03:17:40.340Z,4.43
2023-04-03T03:18:12.650Z,3.85
2023-04-03T03:18:44.948Z,4.15
2023-04-03T03:19:17.489Z,4.28
2023-04-03T03:19:49.777Z,4.22
2023-04-03T03:20:22.707Z,4.38
2023-04-03T03:20:57.239Z,3.47
2023-04-03T03:21:29.559Z,4.03
2023-04-03T03:22:02.115Z,3.45
2023-04-03T03:22:36.943Z,3.43
2023-04-03T03:23:10.555Z,4.00
2023-04-03T03:23:43.068Z,3.67
2023-04-03T03:24:17.313Z,4.15
2023-04-03T03:24:49.670Z,3.65
2023-04-03T03:25:21.960Z,4.22
2023-04-03T03:25:58.748Z,3.78
2023-04-03T03:26:31.187Z,5.00
2023-04-03T03:27:03.930Z,4.75
2023-04-03T03:27:36.501Z,3.92
2023-04-03T03:28:09.079Z,4.20
2023-04-03T03:28:42.040Z,4.65
2023-04-03T03:29:14.458Z,4.03
2023-04-03T03:29:46.879Z,4.80
2023-04-03T03:30:20.015Z,4.25
2023-04-03T03:30:53.232Z,4.55
2023-04-03T03:31:26.764Z,3.90
2023-04-03T03:31:59.042Z,3.88
2023-04-03T03:32:31.352Z,4.82
2023-04-03T03:33:04.022Z,3.83
2023-04-03T03:33:36.581Z,3.73
2023-04-03T03:34:09.076Z,4.13
2023-04-03T03:34:41.455Z,4.63
2023-04-03T03:35:13.736Z,4.20
2023-04-03T03:35:46.654Z,4.90
2023-04-03T03:36:19.022Z,4.15
2023-04-03T03:36:51.632Z,4.60
2023-04-03T03:37:23.968Z,4.38
2023-04-03T03:37:56.404Z,4.68
2023-04-03T03:38:29.245Z,4.18
2023-04-03T03:39:01.763Z,5.03
2023-04-03T03:39:34.483Z,3.92
2023-04-03T03:40:07.226Z,4.43
2023-04-03T03:40:39.744Z,4.65
2023-04-03T03:41:12.552Z,4.90
2023-04-03T03:41:45.266Z,4.15
2023-04-03T03:42:17.758Z,4.38
2023-04-03T03:42:50.036Z,4.60
2023-04-03T03:43:22.438Z,4.55
2023-04-03T03:43:56.068Z,4.22
2023-04-03T03:44:30.543Z,4.57
2023-04-03T03:45:03.274Z,4.65
2023-04-03T03:45:35.981Z,4.57
2023-04-03T03:46:08.684Z,4.05
2023-04-03T03:46:41.306Z,4.40
2023-04-03T03:47:13.934Z,5.10
2023-04-03T03:47:46.827Z,4.43
2023-04-03T03:48:19.647Z,5.18
2023-04-03T03:48:51.929Z,4.82
2023-04-03T03:49:24.667Z,5.15
2023-04-03T03:49:57.638Z,5.27
2023-04-03T03:50:30.516Z,4.93
2023-04-03T03:51:02.818Z,4.60
2023-04-03T03:51:39.676Z,4.88
2023-04-03T03:52:12.822Z,4.90
2023-04-03T03:52:45.850Z,5.00
2023-04-03T03:53:18.178Z,4.65
2023-04-03T03:53:50.873Z,5.25
2023-04-03T03:54:25.328Z,4.63
2023-04-03T03:54:57.825Z,4.47
2023-04-03T03:55:30.141Z,5.00
2023-04-03T03:56:03.917Z,3.90
2023-04-03T03:56:36.899Z,5.40
2023-04-03T03:57:09.227Z,5.57
2023-04-03T03:57:42.212Z,5.05
2023-04-03T03:58:14.523Z,5.13
2023-04-03T03:58:47.150Z,4.60
2023-04-03T03:59:19.754Z,4.72
2023-04-03T03:59:52.924Z,4.88
2023-04-03T04:00:25.989Z,5.65
2023-04-03T04:01:02.021Z,5.53
2023-04-03T04:01:34.850Z,5.07
2023-04-03T04:02:08.157Z,4.53
2023-04-03T04:02:41.041Z,4.65
2023-04-03T04:03:14.561Z,4.55
2023-04-03T04:03:47.572Z,4.00
2023-04-03T04:04:24.099Z,5.22
2023-04-03T04:04:57.224Z,4.78
2023-04-03T04:05:29.520Z,5.00
2023-04-03T04:06:01.878Z,4.80
2023-04-03T04:06:34.321Z,4.70
2023-04-03T04:07:10.221Z,5.10
2023-04-03T04:07:42.674Z,4.80
2023-04-03T04:08:14.977Z,5.07
2023-04-03T04:08:47.474Z,5.10
2023-04-03T04:09:20.841Z,4.28
2023-04-03T04:09:53.122Z,5.35
2023-04-03T04:10:25.843Z,5.45
2023-04-03T04:10:58.396Z,5.05
2023-04-03T04:11:30.776Z,5.10
2023-04-03T04:12:03.657Z,4.63
2023-04-03T04:12:37.882Z,4.85
2023-04-03T04:13:10.458Z,5.10
2023-04-03T04:13:42.912Z,4.95
2023-04-03T04:14:17.361Z,4.95
2023-04-03T04:14:50.071Z,4.60
2023-04-03T04:15:22.941Z,4.20
2023-04-03T04:15:55.896Z,4.57
2023-04-03T04:16:28.603Z,5.00
2023-04-03T04:17:03.679Z,4.55
2023-04-03T04:17:36.599Z,4.77
2023-04-03T04:18:10.959Z,5.45
2023-04-03T04:18:43.655Z,4.85
2023-04-03T04:19:16.017Z,5.53
2023-04-03T04:19:49.607Z,5.88
2023-04-03T04:20:22.319Z,4.47
2023-04-03T04:20:55.137Z,4.82
2023-04-03T04:21:28.529Z,4.95
2023-04-03T04:22:00.810Z,4.93
2023-04-03T04:22:33.330Z,4.32
2023-04-03T04:23:05.852Z,4.57
2023-04-03T04:23:38.509Z,5.03
2023-04-03T04:24:10.861Z,5.20
2023-04-03T04:24:44.122Z,5.05
2023-04-03T04:25:16.457Z,5.32
2023-04-03T04:25:49.525Z,5.53
2023-04-03T04:26:22.481Z,5.47
2023-04-03T04:26:54.764Z,5.38
2023-04-03T04:27:27.697Z,5.15
2023-04-03T04:28:00.918Z,4.55
2023-04-03T04:28:33.198Z,5.07
2023-04-03T04:29:07.160Z,5.05
2023-04-03T04:29:41.506Z,4.97
2023-04-03T04:30:15.757Z,5.75
2023-04-03T04:30:49.828Z,5.68
2023-04-03T04:31:23.661Z,4.63
2023-04-03T04:31:56.320Z,5.47
2023-04-03T04:32:29.632Z,5.22
2023-04-03T04:33:02.608Z,5.75
2023-04-03T04:33:35.856Z,5.45
2023-04-03T04:34:10.642Z,5.00
2023-04-03T04:34:43.739Z,5.75
2023-04-03T04:35:17.016Z,4.80
2023-04-03T04:35:53.423Z,4.95
2023-04-03T04:36:27.464Z,5.50
2023-04-03T04:36:59.872Z,4.90
2023-04-03T04:37:33.470Z,5.35
2023-04-03T04:38:06.144Z,5.78
2023-04-03T04:38:39.712Z,4.65
2023-04-03T04:39:12.971Z,4.82
2023-04-03T04:39:46.093Z,4.60
2023-04-03T04:40:18.719Z,5.88
2023-04-03T04:40:51.349Z,5.22
2023-04-03T04:41:24.141Z,4.80
2023-04-03T04:41:58.184Z,5.45
2023-04-03T04:42:33.125Z,5.30
2023-04-03T04:43:06.060Z,5.18
2023-04-03T04:43:38.541Z,5.57
2023-04-03T04:44:11.141Z,5.25
2023-04-03T04:44:44.281Z,5.55
2023-04-03T04:45:16.587Z,5.53
2023-04-03T04:46:00.977Z,5.45
2023-04-03T04:46:33.530Z,5.30
2023-04-03T04:47:06.330Z,5.85
2023-04-03T04:47:38.960Z,4.60
2023-04-03T04:48:11.459Z,5.63
2023-04-03T04:48:43.903Z,4.47
2023-04-03T04:49:16.689Z,4.80
2023-04-03T04:49:49.516Z,5.78
2023-04-03T04:50:22.180Z,5.82
2023-04-03T04:50:54.700Z,5.97
2023-04-03T04:51:27.521Z,5.30
2023-04-03T04:52:01.164Z,5.53
2023-04-03T04:52:37.511Z,5.70
2023-04-03T04:53:10.276Z,4.68
2023-04-03T04:53:44.115Z,4.63
2023-04-03T04:54:19.425Z,5.60
2023-04-03T04:54:53.720Z,5.55
2023-04-03T04:55:26.201Z,5.93
2023-04-03T04:55:58.729Z,5.32
2023-04-03T04:56:31.246Z,5.53
2023-04-03T04:57:04.952Z,6.03
2023-04-03T04:57:38.236Z,5.55
2023-04-03T04:58:10.910Z,5.50
2023-04-03T04:58:43.577Z,5.75
2023-04-03T04:59:16.339Z,5.28
2023-04-03T04:59:48.728Z,5.75
2023-04-03T05:00:21.319Z,5.25
2023-04-03T05:01:01.114Z,5.90
2023-04-03T05:01:33.680Z,4.57
2023-04-03T05:02:21.015Z,5.10
2023-04-03T05:02:53.452Z,5.32
2023-04-03T05:03:25.816Z,5.45
2023-04-03T05:03:58.186Z,5.45
2023-04-03T05:04:31.075Z,5.38
2023-04-03T05:05:09.932Z,5.50
2023-04-03T05:05:43.503Z,5.55
2023-04-03T05:06:16.009Z,5.65
2023-04-03T05:06:48.392Z,5.50
2023-04-03T05:07:25.441Z,5.85
2023-04-03T05:07:57.962Z,6.07
2023-04-03T05:08:30.656Z,6.00
2023-04-03T05:09:03.458Z,5.85
2023-04-03T05:09:37.404Z,5.43
2023-04-03T05:10:10.273Z,5.90
2023-04-03T05:10:43.383Z,6.22
2023-04-03T05:11:17.246Z,5.72
2023-04-03T05:11:51.179Z,6.68
2023-04-03T05:12:26.208Z,6.05
2023-04-03T05:13:03.847Z,5.38
2023-04-03T05:13:36.398Z,6.20
2023-04-03T05:14:08.791Z,5.32
2023-04-03T05:14:42.214Z,6.53
2023-04-03T05:15:16.621Z,5.85
2023-04-03T05:15:50.034Z,5.85
2023-04-03T05:16:22.873Z,5.03
2023-04-03T05:16:55.273Z,5.05
2023-04-03T05:17:31.144Z,6.32
2023-04-03T05:18:04.772Z,6.13
2023-04-03T05:18:37.405Z,4.65
2023-04-03T05:19:15.164Z,6.40
2023-04-03T05:19:48.209Z,5.22
2023-04-03T05:20:21.474Z,6.15
2023-04-03T05:20:54.704Z,5.78
2023-04-03T05:21:30.593Z,5.75
2023-04-03T05:22:03.688Z,6.22
2023-04-03T05:22:36.773Z,6.22
2023-04-03T05:23:13.038Z,5.57
2023-04-03T05:23:46.396Z,5.95
2023-04-03T05:24:18.880Z,4.85
2023-04-03T05:24:51.277Z,5.83
2023-04-03T05:25:24.720Z,6.45
2023-04-03T05:25:59.600Z,6.32
2023-04-03T05:26:32.590Z,4.65
2023-04-03T05:27:05.733Z,5.03
2023-04-03T05:27:41.359Z,5.25
2023-04-03T05:28:14.671Z,6.22
2023-04-03T05:28:47.131Z,6.25
2023-04-03T05:29:19.696Z,6.30
2023-04-03T05:29:53.977Z,5.95
2023-04-03T05:30:28.004Z,5.20
2023-04-03T05:31:00.491Z,5.85
2023-04-03T05:31:38.791Z,7.18
2023-04-03T05:32:13.441Z,5.65
2023-04-03T05:32:46.573Z,7.10
2023-04-03T05:33:24.094Z,6.57
2023-04-03T05:33:58.962Z,6.30
2023-04-03T05:34:32.871Z,6.43
2023-04-03T05:35:06.942Z,6.78
2023-04-03T05:35:42.852Z,6.75
2023-04-03T05:36:18.718Z,7.33
2023-04-03T05:36:55.716Z,7.30
2023-04-03T05:37:28.323Z,7.32
2023-04-03T05:38:01.576Z,6.65
2023-04-03T05:38:34.394Z,6.25
2023-04-03T05:39:06.924Z,6.38
2023-04-03T05:39:42.880Z,6.43
2023-04-03T05:40:18.565Z,6.50
2023-04-03T05:40:53.649Z,6.10
2023-04-03T05:41:26.148Z,5.82
2023-04-03T05:41:58.505Z,6.63
2023-04-03T05:42:31.122Z,5.78
2023-04-03T05:43:03.898Z,6.18
2023-04-03T05:43:40.336Z,4.85
2023-04-03T05:44:14.670Z,5.90
2023-04-03T05:44:49.972Z,6.30
2023-04-03T05:45:22.733Z,5.63
2023-04-03T05:45:55.346Z,6.38
2023-04-03T05:46:29.613Z,5.78
2023-04-03T05:47:03.545Z,4.90
2023-04-03T05:47:36.059Z,7.40
2023-04-03T05:48:08.847Z,5.70
2023-04-03T05:48:41.352Z,5.28
2023-04-03T05:49:16.857Z,6.47
2023-04-03T05:49:49.349Z,6.13
2023-04-03T05:50:23.320Z,6.10
2023-04-03T05:50:58.148Z,6.72
2023-04-03T05:51:34.708Z,6.10
2023-04-03T05:52:26.767Z,6.45
2023-04-03T05:53:00.970Z,5.15
2023-04-03T05:53:38.316Z,5.67
2023-04-03T05:54:16.074Z,5.57
2023-04-03T05:54:49.476Z,5.65
2023-04-03T05:55:27.188Z,5.78
2023-04-03T05:56:00.217Z,5.38
2023-04-03T05:56:33.312Z,5.47
2023-04-03T05:57:05.813Z,5.03
2023-04-03T05:57:38.279Z,5.93
2023-04-03T05:58:11.723Z,6.53
2023-04-03T05:58:44.817Z,5.63
2023-04-03T05:59:17.903Z,5.40
2023-04-03T05:59:50.666Z,6.53
2023-04-03T06:00:23.765Z,5.25
2023-04-03T06:01:05.897Z,5.00
2023-04-03T06:01:38.899Z,5.40
2023-04-03T06:02:14.773Z,5.90
2023-04-03T06:02:47.205Z,6.32
2023-04-03T06:03:24.868Z,5.80
2023-04-03T06:04:00.054Z,5.80
2023-04-03T06:04:32.736Z,5.97
2023-04-03T06:05:05.709Z,6.27
2023-04-03T06:05:38.304Z,5.60
2023-04-03T06:06:14.066Z,5.90
2023-04-03T06:06:49.459Z,5.80
2023-04-03T06:07:23.814Z,6.85
2023-04-03T06:07:56.711Z,6.70
2023-04-03T06:08:29.220Z,6.95
2023-04-03T06:09:03.631Z,6.07
2023-04-03T06:09:36.664Z,5.90
2023-04-03T06:10:10.123Z,6.47
2023-04-03T06:10:42.606Z,6.27
2023-04-03T06:11:14.926Z,5.72
2023-04-03T06:11:47.268Z,6.00
2023-04-03T06:12:20.251Z,5.50
2023-04-03T06:12:52.945Z,4.40
2023-04-03T06:13:25.241Z,5.47
2023-04-03T06:13:57.560Z,5.63
2023-04-03T06:14:30.053Z,5.97
2023-04-03T06:15:03.757Z,6.03
2023-04-03T06:15:36.104Z,6.28
2023-04-03T06:16:10.810Z,5.80
2023-04-03T06:16:43.468Z,5.68
2023-04-03T06:17:17.505Z,5.65
2023-04-03T06:17:50.034Z,5.70
2023-04-03T06:18:22.531Z,5.45
2023-04-03T06:18:55.413Z,5.45
2023-04-03T06:19:28.307Z,5.32
2023-04-03T06:20:02.619Z,6.25
2023-04-03T06:20:34.993Z,5.50
2023-04-03T06:21:08.987Z,4.18
2023-04-03T06:21:41.477Z,5.63
2023-04-03T06:22:14.704Z,5.60
2023-04-03T06:22:47.141Z,6.00
2023-04-03T06:23:19.684Z,5.43
2023-04-03T06:23:52.754Z,6.32
2023-04-03T06:24:26.365Z,4.97
2023-04-03T06:24:58.829Z,5.00
2023-04-03T06:25:31.115Z,4.90
2023-04-03T06:26:03.624Z,5.25
2023-04-03T06:26:36.269Z,5.82
2023-04-03T06:27:08.851Z,4.67
2023-04-03T06:27:41.319Z,5.60
2023-04-03T06:28:13.707Z,5.20
2023-04-03T06:28:46.152Z,5.57
2023-04-03T06:29:18.932Z,5.13
2023-04-03T06:29:51.616Z,5.00
2023-04-03T06:30:23.888Z,5.47
2023-04-03T06:30:56.467Z,5.00
2023-04-03T06:31:28.960Z,5.90
2023-04-03T06:32:01.613Z,4.90
2023-04-03T06:32:33.957Z,5.53
2023-04-03T06:33:06.480Z,5.07
2023-04-03T06:33:38.766Z,5.30
2023-04-03T06:34:12.146Z,5.63
2023-04-03T06:34:45.106Z,4.80
2023-04-03T06:35:17.485Z,5.25
2023-04-03T06:35:49.802Z,5.53
2023-04-03T06:36:22.301Z,5.60
2023-04-03T06:36:54.669Z,5.40
2023-04-03T06:37:27.281Z,5.25
2023-04-03T06:37:59.886Z,5.77
2023-04-03T06:38:33.040Z,5.47
2023-04-03T06:39:05.624Z,4.65
2023-04-03T06:39:38.726Z,5.50
2023-04-03T06:40:19.018Z,5.20
2023-04-03T06:40:52.854Z,4.90
2023-04-03T06:41:26.834Z,4.70
2023-04-03T06:41:59.195Z,4.68
2023-04-03T06:42:36.104Z,4.80
2023-04-03T06:43:15.994Z,5.53
2023-04-03T06:43:48.288Z,4.97
2023-04-03T06:44:20.626Z,5.32
2023-04-03T06:44:52.957Z,4.80
2023-04-03T06:45:26.708Z,5.80
2023-04-03T06:45:59.143Z,5.95
2023-04-03T06:46:31.752Z,5.75
2023-04-03T06:47:04.160Z,5.68
2023-04-03T06:47:37.013Z,5.35
2023-04-03T06:48:09.506Z,5.43
2023-04-03T06:48:42.150Z,5.45
2023-04-03T06:49:14.594Z,5.57
2023-04-03T06:49:46.965Z,5.40
2023-04-03T06:50:19.320Z,5.32
2023-04-03T06:50:51.799Z,5.43
2023-04-03T06:51:28.047Z,4.82
2023-04-03T06:52:02.106Z,4.97
2023-04-03T06:52:34.900Z,5.45
2023-04-03T06:53:08.486Z,5.25
2023-04-03T06:53:40.914Z,5.60
2023-04-03T06:54:13.224Z,4.95
2023-04-03T06:54:46.023Z,4.83
2023-04-03T06:55:18.447Z,4.78
2023-04-03T06:55:50.850Z,4.78
2023-04-03T06:56:23.408Z,5.05
2023-04-03T06:56:56.239Z,5.03
2023-04-03T06:57:28.708Z,5.00
2023-04-03T06:58:01.758Z,5.38
2023-04-03T06:58:34.014Z,5.50
2023-04-03T06:59:06.454Z,5.93
2023-04-03T06:59:38.782Z,5.10
2023-04-03T07:00:12.024Z,5.00
2023-04-03T07:00:44.774Z,4.53
2023-04-03T07:01:17.703Z,4.75
2023-04-03T07:01:50.323Z,5.43
2023-04-03T07:02:22.997Z,5.10
2023-04-03T07:02:55.438Z,5.47
2023-04-03T07:03:27.956Z,4.97
2023-04-03T07:04:00.371Z,4.80
2023-04-03T07:04:33.381Z,4.93
2023-04-03T07:05:06.707Z,4.53
2023-04-03T07:05:39.366Z,4.80
2023-04-03T07:06:16.425Z,4.50
2023-04-03T07:06:49.120Z,5.10
2023-04-03T07:07:21.580Z,4.82
2023-04-03T07:07:54.308Z,4.80
2023-04-03T07:08:27.339Z,4.45
2023-04-03T07:08:59.630Z,4.43
2023-04-03T07:09:31.950Z,4.90
2023-04-03T07:10:04.726Z,5.38
2023-04-03T07:10:38.854Z,4.43
2023-04-03T07:11:12.058Z,5.37
2023-04-03T07:11:44.425Z,4.20
2023-04-03T07:12:17.322Z,4.55
2023-04-03T07:12:49.914Z,4.63
2023-04-03T07:13:22.341Z,4.80
2023-04-03T07:13:54.916Z,4.78
2023-04-03T07:14:27.269Z,4.75
2023-04-03T07:14:59.558Z,4.90
2023-04-03T07:15:31.983Z,4.60
2023-04-03T07:16:07.639Z,5.57
2023-04-03T07:16:41.838Z,4.57
2023-04-03T07:17:15.153Z,4.28
2023-04-03T07:17:48.120Z,4.80
2023-04-03T07:18:20.594Z,5.15
2023-04-03T07:18:52.945Z,5.28
2023-04-03T07:19:28.488Z,5.07
2023-04-03T07:20:01.309Z,4.72
2023-04-03T07:20:37.493Z,5.13
2023-04-03T07:21:10.283Z,4.93
2023-04-03T07:21:43.168Z,4.75
2023-04-03T07:22:15.466Z,4.40
2023-04-03T07:22:47.775Z,5.03
2023-04-03T07:23:20.420Z,4.90
2023-04-03T07:23:52.857Z,5.28
2023-04-03T07:24:25.187Z,5.38
2023-04-03T07:24:57.577Z,5.22